Date,TemperatureHighF,TemperatureAvgF,TemperatureLowF,DewpointHighF,DewpointAvgF,DewpointLowF,HumidityHigh,HumidityAvg,HumidityLow,PressureMaxIn,PressureMinIn,WindSpeedMaxMPH,WindSpeedAvgMPH,GustSpeedMaxMPH,PrecipitationSumIn
2013-6-1,67.5,57.2,46.0,40.0,37.4,33.0,72,49,33,25.89,25.69,43,12,44,0.00
2013-6-2,83.2,63.7,41.0,41.0,36.9,32.0,72,42,19,25.89,25.57,28,8,33,0.00
2013-6-3,95.3,76.2,54.0,48.0,33.8,14.0,64,30,5,25.59,25.39,25,7,26,0.01
2013-6-4,76.7,66.4,56.4,57.5,53.0,47.0,89,64,42,25.77,25.50,32,12,32,0.02
2013-6-5,60.4,54.6,49.6,57.0,52.3,47.5,95,92,88,25.87,25.74,25,12,26,0.14
2013-6-6,79.4,68.3,50.4,53.0,45.3,40.0,95,47,27,25.86,25.70,15,4,22,0.00
2013-6-7,83.8,66.8,48.9,54.0,46.6,38.0,83,54,21,25.78,25.58,44,4,44,0.51
2013-6-8,77.9,67.3,57.2,54.0,47.5,35.0,84,53,23,25.73,25.49,41,12,45,0.00
2013-6-9,89.4,71.5,49.4,51.0,42.3,32.0,81,42,13,25.75,25.63,20,4,22,0.00
2013-6-10,100.8,80.6,50.8,50.5,36.3,14.0,73,29,4,25.68,25.52,16,4,17,0.00
2013-6-11,103.2,86.8,60.2,53.5,25.7,0.0,46,16,2,25.60,25.43,37,9,37,0.00
2013-6-12,93.5,79.7,60.6,56.5,41.9,26.0,72,31,10,25.80,25.60,28,7,29,0.00
2013-6-13,96.5,73.9,58.6,56.0,50.1,35.0,80,49,14,25.84,25.61,56,9,60,0.09
2013-6-14,93.8,74.8,61.8,54.0,47.5,36.0,65,41,14,25.70,25.60,31,6,31,0.05
2013-6-15,87.5,71.1,56.9,58.0,51.3,39.0,87,54,21,25.81,25.62,41,6,42,0.09
2013-6-16,87.2,70.0,57.4,57.5,52.3,39.0,91,59,23,25.82,25.66,42,8,42,0.02
2013-6-17,81.7,66.4,51.5,57.5,51.2,40.0,94,64,25,25.86,25.74,31,5,33,0.00
2013-6-18,84.5,68.1,54.7,56.5,52.7,48.0,90,61,29,25.86,25.63,43,9,43,0.09
2013-6-19,85.4,70.7,56.8,63.0,58.9,54.5,98,70,36,25.75,25.50,33,12,35,0.00
2013-6-20,97.2,80.3,60.3,62.0,43.5,11.0,92,41,4,25.59,25.48,25,6,25,0.00
2013-6-21,96.9,84.5,66.2,50.0,34.4,-6.0,50,23,2,25.60,25.46,32,10,33,0.00
2013-6-22,90.6,76.1,58.1,59.0,49.8,37.0,72,43,16,25.62,25.45,29,8,30,0.00
2013-6-23,86.6,74.2,61.8,57.0,49.0,45.0,61,43,25,25.69,25.51,36,11,37,0.00
2013-6-24,93.6,76.7,62.5,57.0,44.0,18.0,63,38,7,25.62,25.46,34,11,36,0.00
2013-6-25,93.0,78.9,64.5,53.0,31.8,16.0,52,20,9,25.60,25.46,21,7,23,0.00
2013-6-26,97.6,92.0,80.6,54.5,41.6,33.0,40,19,11,25.76,25.69,19,7,22,0.00
2013-6-27,97.5,83.5,65.5,59.5,50.7,38.0,69,36,13,25.92,25.75,34,10,34,0.00
2013-6-28,95.4,81.0,63.8,63.5,49.1,35.0,81,40,12,25.95,25.77,28,7,30,0.00
2013-6-29,88.0,75.3,63.1,59.5,53.3,48.0,83,49,27,25.96,25.75,31,5,32,0.06
2013-6-30,74.0,67.8,60.2,54.5,49.5,43.0,76,53,35,25.92,25.85,19,4,19,0.03